createdAt,value
2017-06-23T00:02:44.720Z,23.43
2017-06-23T00:02:54.549Z,23.4
2017-06-23T00:03:54.816Z,23.5
2017-06-23T00:04:54.756Z,23.48
2017-06-23T00:05:54.693Z,23.41
2017-06-23T00:06:54.305Z,23.47
2017-06-23T00:07:54.570Z,23.51
2017-06-23T00:08:54.508Z,23.48
2017-06-23T00:09:54.456Z,23.48
2017-06-23T00:10:54.388Z,23.43
2017-06-23T00:11:54.322Z,23.41
2017-06-23T00:12:54.260Z,23.46
2017-06-23T00:13:54.196Z,23.46
2017-06-23T00:14:53.808Z,23.44
2017-06-23T00:15:54.077Z,23.5
2017-06-23T00:16:53.686Z,23.44
2017-06-23T00:17:53.621Z,23.58
2017-06-23T00:18:53.560Z,23.54
2017-06-23T00:19:53.827Z,23.5
2017-06-23T00:20:53.768Z,23.55
2017-06-23T00:21:53.707Z,23.56
2017-06-23T00:22:53.645Z,23.47
2017-06-23T00:23:53.578Z,23.44
2017-06-23T00:24:53.540Z,23.59
2017-06-23T00:25:53.129Z,23.44
2017-06-23T00:26:53.396Z,23.46
2017-06-23T00:27:53.332Z,23.5
2017-06-23T00:28:53.272Z,23.4
2017-06-23T00:29:53.210Z,23.47
2017-06-23T00:30:52.825Z,23.5
2017-06-23T00:31:53.086Z,23.55
2017-06-23T00:32:53.025Z,23.5
2017-06-23T00:33:52.961Z,23.51
2017-06-23T00:34:52.901Z,23.51
2017-06-23T00:35:52.840Z,23.41
2017-06-23T00:36:52.775Z,23.5
2017-06-23T00:37:52.715Z,23.48
2017-06-23T00:38:52.655Z,23.5
2017-06-23T00:39:52.591Z,23.41
2017-06-23T00:40:52.531Z,23.47
2017-06-23T00:41:52.470Z,23.46
2017-06-23T00:42:52.405Z,23.48
2017-06-23T00:43:52.344Z,23.5
2017-06-23T00:44:52.280Z,23.61
2017-06-23T00:45:52.221Z,23.51
2017-06-23T00:46:52.158Z,23.46
2017-06-23T00:47:52.098Z,23.59
2017-06-23T00:48:52.037Z,23.51
2017-06-23T00:49:51.972Z,23.44
2017-06-23T00:50:52.030Z,23.51
2017-06-23T00:51:51.851Z,23.55
2017-06-23T00:52:51.788Z,23.55
2017-06-23T00:53:51.401Z,23.54
2017-06-23T00:54:51.666Z,23.44
2017-06-23T00:55:51.603Z,23.54
2017-06-23T00:56:51.548Z,23.44
2017-06-23T00:57:51.476Z,23.51
2017-06-23T00:58:51.416Z,23.41
2017-06-23T00:59:51.355Z,23.51
2017-06-23T01:00:51.494Z,23.44
2017-06-23T01:01:51.471Z,23.59
2017-06-23T01:02:51.177Z,23.46
2017-06-23T01:03:51.107Z,23.54
2017-06-23T01:04:51.050Z,23.44
2017-06-23T01:05:50.984Z,23.56
2017-06-23T01:06:51.126Z,23.5
2017-06-23T01:07:50.866Z,23.55
2017-06-23T01:08:50.802Z,23.44
2017-06-23T01:09:50.738Z,23.55
2017-06-23T01:10:50.675Z,23.55
2017-06-23T01:11:50.616Z,23.56
2017-06-23T01:12:50.558Z,23.5
2017-06-23T01:13:50.490Z,23.56
2017-06-23T01:14:50.427Z,23.55
2017-06-23T01:15:50.039Z,23.47
2017-06-23T01:16:50.308Z,23.5
2017-06-23T01:17:50.451Z,23.43
2017-06-23T01:18:50.182Z,23.48
2017-06-23T01:19:50.127Z,23.55
2017-06-23T01:20:50.079Z,23.56
2017-06-23T01:21:49.996Z,23.54
2017-06-23T01:22:49.937Z,23.56
2017-06-23T01:23:49.872Z,23.55
2017-06-23T01:24:49.814Z,23.55
2017-06-23T01:25:49.998Z,23.5
2017-06-23T01:26:49.693Z,23.47
2017-06-23T01:27:49.298Z,23.5
2017-06-23T01:28:49.565Z,23.5
2017-06-23T01:29:49.504Z,23.54
2017-06-23T01:30:49.441Z,23.56
2017-06-23T01:31:49.381Z,23.5
2017-06-23T01:32:49.317Z,23.55
2017-06-23T01:33:49.254Z,23.44
2017-06-23T01:34:49.192Z,23.51
2017-06-23T01:35:49.131Z,23.56
2017-06-23T01:36:49.083Z,23.55
2017-06-23T01:37:48.683Z,23.48
2017-06-23T01:38:48.951Z,23.56
2017-06-23T01:39:48.886Z,23.55
2017-06-23T01:40:48.823Z,23.51
2017-06-23T01:41:48.765Z,23.5
2017-06-23T01:42:48.701Z,23.54
2017-06-23T01:43:48.839Z,23.55
2017-06-23T01:44:48.578Z,23.55
2017-06-23T01:45:48.514Z,23.55
2017-06-23T01:46:48.454Z,23.55
2017-06-23T01:47:48.392Z,23.56
2017-06-23T01:48:48.329Z,23.56
2017-06-23T01:49:48.270Z,23.51
2017-06-23T01:50:48.208Z,23.55
2017-06-23T01:51:47.815Z,23.48
2017-06-23T01:52:48.080Z,23.44
2017-06-23T01:53:47.690Z,23.55
2017-06-23T01:54:47.959Z,23.44
2017-06-23T01:55:47.895Z,23.51
2017-06-23T01:56:47.834Z,23.46
2017-06-23T01:57:47.772Z,23.56
2017-06-23T01:58:47.720Z,23.55
2017-06-23T01:59:47.648Z,23.55
2017-06-23T02:00:47.588Z,23.43
2017-06-23T02:01:47.529Z,23.56
2017-06-23T02:02:47.462Z,23.55
2017-06-23T02:03:47.402Z,23.56
2017-06-23T02:04:47.340Z,23.48
2017-06-23T02:05:46.951Z,23.46
2017-06-23T02:06:47.216Z,23.51
2017-06-23T02:07:47.155Z,23.56
2017-06-23T02:08:47.093Z,23.51
2017-06-23T02:09:47.031Z,23.5
2017-06-23T02:10:46.987Z,23.55
2017-06-23T02:11:46.909Z,23.54
2017-06-23T02:12:46.847Z,23.5
2017-06-23T02:13:46.457Z,23.43
2017-06-23T02:14:46.721Z,23.54
2017-06-23T02:15:46.332Z,23.46
2017-06-23T02:16:46.599Z,23.5
2017-06-23T02:17:46.536Z,23.51
2017-06-23T02:18:46.505Z,23.48
2017-06-23T02:19:46.416Z,23.55
2017-06-23T02:20:46.354Z,23.51
2017-06-23T02:21:46.292Z,23.44
2017-06-23T02:22:46.231Z,23.5
2017-06-23T02:23:46.167Z,23.47
2017-06-23T02:24:46.105Z,23.56
2017-06-23T02:25:46.043Z,23.5
2017-06-23T02:26:45.982Z,23.46
2017-06-23T02:27:45.591Z,23.5
2017-06-23T02:28:45.859Z,23.54
2017-06-23T02:29:45.798Z,23.58
2017-06-23T02:30:45.738Z,23.51
2017-06-23T02:31:45.675Z,23.56
2017-06-23T02:32:45.620Z,23.51
2017-06-23T02:33:45.559Z,23.54
2017-06-23T02:34:45.488Z,23.46
2017-06-23T02:35:45.098Z,23.48
2017-06-23T02:36:45.035Z,23.56
2017-06-23T02:37:45.302Z,23.51
2017-06-23T02:38:45.243Z,23.55
2017-06-23T02:39:45.178Z,23.54
2017-06-23T02:40:45.121Z,23.54
2017-06-23T02:41:45.056Z,23.55
2017-06-23T02:42:44.992Z,23.46
2017-06-23T02:43:44.603Z,23.48
2017-06-23T02:44:44.541Z,23.5
2017-06-23T02:45:44.808Z,23.43
2017-06-23T02:46:44.751Z,23.43
2017-06-23T02:47:44.683Z,23.43
2017-06-23T02:48:44.624Z,23.44
2017-06-23T02:49:44.565Z,23.47
2017-06-23T02:50:44.500Z,23.4
2017-06-23T02:51:44.113Z,23.46
2017-06-23T02:52:44.383Z,23.44
2017-06-23T02:53:44.318Z,23.4
2017-06-23T02:54:44.253Z,23.41
2017-06-23T02:55:44.191Z,23.44
2017-06-23T02:56:44.132Z,23.46
2017-06-23T02:57:44.068Z,23.44
2017-06-23T02:58:44.026Z,23.44
2017-06-23T02:59:43.945Z,23.41
2017-06-23T03:00:43.887Z,23.4
2017-06-23T03:01:43.825Z,23.43
2017-06-23T03:02:43.760Z,23.44
2017-06-23T03:03:43.698Z,23.5
2017-06-23T03:04:43.635Z,23.48
2017-06-23T03:05:43.576Z,23.43
2017-06-23T03:06:43.512Z,23.58
2017-06-23T03:07:43.123Z,23.46
2017-06-23T03:08:43.388Z,23.48
2017-06-23T03:09:43.348Z,23.41
2017-06-23T03:10:43.267Z,23.44
2017-06-23T03:11:43.204Z,23.48
2017-06-23T03:12:43.141Z,23.44
2017-06-23T03:13:43.080Z,23.43
2017-06-23T03:14:43.018Z,23.47
2017-06-23T03:15:42.628Z,23.46
2017-06-23T03:16:42.894Z,23.41
2017-06-23T03:17:42.833Z,23.44
2017-06-23T03:18:42.776Z,23.43
2017-06-23T03:19:42.708Z,23.46
2017-06-23T03:20:42.650Z,23.44
2017-06-23T03:21:42.605Z,23.43
2017-06-23T03:22:42.526Z,23.48
2017-06-23T03:23:42.134Z,23.44
2017-06-23T03:24:42.399Z,23.48
2017-06-23T03:25:42.339Z,23.48
2017-06-23T03:26:42.275Z,23.41
2017-06-23T03:27:42.220Z,23.44
2017-06-23T03:28:42.156Z,23.41
2017-06-23T03:29:42.091Z,23.44
2017-06-23T03:30:42.029Z,23.44
2017-06-23T03:31:41.969Z,23.44
2017-06-23T03:32:41.908Z,23.41
2017-06-23T03:33:41.844Z,23.44
2017-06-23T03:34:41.785Z,23.43
2017-06-23T03:35:41.722Z,23.44
2017-06-23T03:36:41.671Z,23.43
2017-06-23T03:37:41.597Z,23.44
2017-06-23T03:38:41.536Z,23.44
2017-06-23T03:39:41.677Z,23.44
2017-06-23T03:40:41.411Z,23.44
2017-06-23T03:41:41.353Z,23.39
2017-06-23T03:42:41.292Z,23.48
2017-06-23T03:43:41.227Z,23.44
2017-06-23T03:44:41.173Z,23.48
2017-06-23T03:45:41.304Z,23.44
2017-06-23T03:46:41.055Z,23.47
2017-06-23T03:47:40.981Z,23.46
2017-06-23T03:48:40.919Z,23.44
2017-06-23T03:49:40.855Z,23.44
2017-06-23T03:50:40.794Z,23.44
2017-06-23T03:51:40.736Z,23.48
2017-06-23T03:52:40.675Z,23.46
2017-06-23T03:53:40.611Z,23.43
2017-06-23T03:54:40.220Z,23.4
2017-06-23T03:55:40.488Z,23.48
2017-06-23T03:56:40.426Z,23.48
2017-06-23T03:57:40.363Z,23.48
2017-06-23T03:58:40.300Z,23.46
2017-06-23T03:59:40.240Z,23.43
2017-06-23T04:00:40.178Z,23.46
2017-06-23T04:01:40.119Z,23.43
2017-06-23T04:02:40.056Z,23.44
2017-06-23T04:03:39.993Z,23.41
2017-06-23T04:04:39.934Z,23.58
2017-06-23T04:05:39.879Z,23.54
2017-06-23T04:06:39.806Z,23.55
2017-06-23T04:07:39.744Z,23.54
2017-06-23T04:08:39.684Z,23.46
2017-06-23T04:09:39.294Z,23.46
2017-06-23T04:10:39.560Z,23.41
2017-06-23T04:11:39.500Z,23.43
2017-06-23T04:12:39.110Z,23.43
2017-06-23T04:13:39.247Z,23.47
2017-06-23T04:14:39.316Z,23.43
2017-06-23T04:15:39.251Z,23.5
2017-06-23T04:16:39.191Z,23.46
2017-06-23T04:17:39.132Z,23.46
2017-06-23T04:18:39.066Z,23.44
2017-06-23T04:19:39.005Z,23.44
2017-06-23T04:20:38.953Z,23.44
2017-06-23T04:21:38.881Z,23.47
2017-06-23T04:22:38.818Z,23.46
2017-06-23T04:23:38.430Z,23.43
2017-06-23T04:24:38.713Z,23.5
2017-06-23T04:25:38.632Z,23.43
2017-06-23T04:26:38.573Z,23.4
2017-06-23T04:27:38.526Z,23.46
2017-06-23T04:28:38.447Z,23.43
2017-06-23T04:29:38.391Z,23.43
2017-06-23T04:30:38.324Z,23.46
2017-06-23T04:31:38.264Z,23.43
2017-06-23T04:32:38.205Z,23.47
2017-06-23T04:33:38.139Z,23.46
2017-06-23T04:34:37.749Z,23.46
2017-06-23T04:35:38.017Z,23.47
2017-06-23T04:36:37.954Z,23.39
2017-06-23T04:37:37.564Z,23.37
2017-06-23T04:38:37.831Z,23.43
2017-06-23T04:39:37.767Z,23.4
2017-06-23T04:40:37.706Z,23.31
2017-06-23T04:41:37.646Z,23.34
2017-06-23T04:42:37.582Z,23.32
2017-06-23T04:43:37.529Z,23.31
2017-06-23T04:44:37.459Z,23.34
2017-06-23T04:45:37.400Z,23.32
2017-06-23T04:46:37.335Z,23.37
2017-06-23T04:47:37.273Z,23.34
2017-06-23T04:48:36.886Z,23.32
2017-06-23T04:49:37.152Z,23.27
2017-06-23T04:50:37.090Z,23.28
2017-06-23T04:51:37.030Z,23.36
2017-06-23T04:52:36.965Z,23.4
2017-06-23T04:53:36.902Z,23.34
2017-06-23T04:54:36.841Z,23.36
2017-06-23T04:55:36.780Z,23.34
2017-06-23T04:56:36.061Z,23.27
2017-06-23T04:57:36.344Z,23.44
2017-06-23T04:58:36.597Z,23.32
2017-06-23T04:59:36.219Z,23.44
2017-06-23T05:00:36.470Z,23.27
2017-06-23T05:01:36.416Z,23.32
2017-06-23T05:02:36.360Z,23.27
2017-06-23T05:03:36.285Z,23.41
2017-06-23T05:04:35.905Z,23.24
2017-06-23T05:05:36.161Z,23.39
2017-06-23T05:06:36.104Z,23.28
2017-06-23T05:07:35.710Z,23.39
2017-06-23T05:08:35.974Z,23.27
2017-06-23T05:09:35.259Z,23.32
2017-06-23T05:10:35.852Z,23.28
2017-06-23T05:11:35.788Z,23.39
2017-06-23T05:12:35.728Z,23.32
2017-06-23T05:13:35.669Z,23.32
2017-06-23T05:14:35.607Z,23.25
2017-06-23T05:15:35.214Z,23.24
2017-06-23T05:16:35.478Z,23.24
2017-06-23T05:17:35.089Z,23.25
2017-06-23T05:18:35.028Z,23.28
2017-06-23T05:19:35.292Z,23.27
2017-06-23T05:20:35.234Z,23.24
2017-06-23T05:21:35.169Z,23.21
2017-06-23T05:22:35.118Z,23.23
2017-06-23T05:23:35.046Z,23.25
2017-06-23T05:24:34.982Z,23.25
2017-06-23T05:25:34.922Z,23.24
2017-06-23T05:26:34.858Z,23.2
2017-06-23T05:27:34.798Z,23.23
2017-06-23T05:28:34.736Z,23.21
2017-06-23T05:29:34.681Z,23.23
2017-06-23T05:30:33.955Z,23.23
2017-06-23T05:31:34.550Z,23.24
2017-06-23T05:32:34.496Z,23.25
2017-06-23T05:33:34.625Z,23.23
2017-06-23T05:34:34.376Z,23.25
2017-06-23T05:35:33.976Z,23.18
2017-06-23T05:36:33.910Z,23.23
2017-06-23T05:37:34.179Z,23.18
2017-06-23T05:38:34.115Z,23.23
2017-06-23T05:39:34.061Z,23.25
2017-06-23T05:40:33.994Z,23.24
2017-06-23T05:41:33.931Z,23.15
2017-06-23T05:42:33.541Z,23.25
2017-06-23T05:43:33.806Z,23.18
2017-06-23T05:44:33.742Z,23.23
2017-06-23T05:45:33.682Z,23.15
2017-06-23T05:46:33.621Z,23.21
2017-06-23T05:47:33.557Z,23.17
2017-06-23T05:48:33.498Z,23.13
2017-06-23T05:49:33.432Z,23.17
2017-06-23T05:50:33.374Z,23.17
2017-06-23T05:51:33.308Z,23.17
2017-06-23T05:52:33.249Z,23.12
2017-06-23T05:53:33.191Z,23.18
2017-06-23T05:54:33.133Z,23.2
2017-06-23T05:55:33.062Z,23.18
2017-06-23T05:56:32.998Z,23.13
2017-06-23T05:57:32.940Z,23.18
2017-06-23T05:58:32.876Z,23.09
2017-06-23T05:59:32.813Z,23.15
2017-06-23T06:00:32.751Z,23.18
2017-06-23T06:01:32.691Z,23.1
2017-06-23T06:02:32.305Z,23.15
2017-06-23T06:03:32.565Z,23.13
2017-06-23T06:04:32.506Z,23.09
2017-06-23T06:05:32.444Z,23.06
2017-06-23T06:06:32.378Z,23.09
2017-06-23T06:07:32.316Z,23.15
2017-06-23T06:08:32.254Z,23.08
2017-06-23T06:09:32.191Z,23.05
2017-06-23T06:10:32.163Z,23.13
2017-06-23T06:11:32.068Z,23.09
2017-06-23T06:12:32.005Z,23.08
2017-06-23T06:13:31.943Z,23.18
2017-06-23T06:14:31.552Z,23.13
2017-06-23T06:15:31.819Z,23.06
2017-06-23T06:16:31.757Z,23.1
2017-06-23T06:17:31.696Z,23.1
2017-06-23T06:18:31.629Z,23.17
2017-06-23T06:19:31.571Z,23.08
2017-06-23T06:20:31.508Z,23.08
2017-06-23T06:21:31.445Z,23.08
2017-06-23T06:22:31.383Z,23.08
2017-06-23T06:23:31.321Z,23.08
2017-06-23T06:24:31.258Z,23.08
2017-06-23T06:25:31.199Z,23.05
2017-06-23T06:26:31.135Z,23
2017-06-23T06:27:31.075Z,23.06
2017-06-23T06:28:31.013Z,23.05
2017-06-23T06:29:30.954Z,23.05
2017-06-23T06:30:30.893Z,23.02
2017-06-23T06:31:30.495Z,23.06
2017-06-23T06:32:30.765Z,23.02
2017-06-23T06:33:30.703Z,23
2017-06-23T06:34:30.642Z,23.05
2017-06-23T06:35:30.575Z,23.05
2017-06-23T06:36:30.517Z,23.03
2017-06-23T06:37:30.451Z,23.03
2017-06-23T06:38:30.391Z,23.03
2017-06-23T06:39:30.325Z,22.96
2017-06-23T06:40:30.264Z,22.99
2017-06-23T06:41:30.206Z,23.02
2017-06-23T06:42:30.142Z,23.02
2017-06-23T06:43:30.079Z,23.02
2017-06-23T06:44:30.015Z,23
2017-06-23T06:45:29.952Z,22.99
2017-06-23T06:46:29.894Z,23
2017-06-23T06:47:29.827Z,23.02
2017-06-23T06:48:29.795Z,23.02
2017-06-23T06:49:29.701Z,23
2017-06-23T06:50:29.642Z,22.99
2017-06-23T06:51:29.582Z,23.02
2017-06-23T06:52:29.189Z,23
2017-06-23T06:53:29.453Z,22.93
2017-06-23T06:54:29.392Z,22.96
2017-06-23T06:55:29.022Z,22.88
2017-06-23T06:56:29.270Z,22.88
2017-06-23T06:57:29.209Z,22.85
2017-06-23T06:58:29.143Z,22.88
2017-06-23T06:59:28.761Z,22.9
2017-06-23T07:00:29.017Z,22.98
2017-06-23T07:01:28.959Z,22.93
2017-06-23T07:02:28.896Z,22.94
2017-06-23T07:03:28.842Z,22.94
2017-06-23T07:04:28.789Z,22.98
2017-06-23T07:05:28.856Z,22.91
2017-06-23T07:06:28.642Z,22.96
2017-06-23T07:07:28.584Z,22.93
2017-06-23T07:08:28.518Z,22.93
2017-06-23T07:09:28.456Z,22.94
2017-06-23T07:10:28.396Z,22.91
2017-06-23T07:11:28.335Z,22.91
2017-06-23T07:12:28.270Z,22.94
2017-06-23T07:13:28.209Z,22.93
2017-06-23T07:14:28.146Z,22.9
2017-06-23T07:15:27.763Z,22.84
2017-06-23T07:16:28.023Z,22.94
2017-06-23T07:17:27.960Z,22.84
2017-06-23T07:18:27.895Z,22.9
2017-06-23T07:19:27.832Z,22.96
2017-06-23T07:20:27.771Z,22.91
2017-06-23T07:21:27.711Z,22.91
2017-06-23T07:22:27.004Z,22.91
2017-06-23T07:23:27.587Z,22.91
2017-06-23T07:24:27.523Z,22.85
2017-06-23T07:25:27.136Z,22.9
2017-06-23T07:26:27.070Z,22.94
2017-06-23T07:27:27.337Z,22.83
2017-06-23T07:28:27.275Z,22.85
2017-06-23T07:29:26.884Z,22.9
2017-06-23T07:30:27.151Z,22.84
2017-06-23T07:31:26.960Z,22.9
2017-06-23T07:32:26.694Z,22.76
2017-06-23T07:33:26.959Z,22.91
2017-06-23T07:34:26.897Z,22.91
2017-06-23T07:35:26.836Z,22.9
2017-06-23T07:36:26.774Z,22.8
2017-06-23T07:37:26.719Z,22.83
2017-06-23T07:38:26.323Z,22.81
2017-06-23T07:39:26.588Z,22.87
2017-06-23T07:40:26.532Z,22.8
2017-06-23T07:41:26.463Z,22.78
2017-06-23T07:42:26.075Z,22.9
2017-06-23T07:43:26.336Z,22.91
2017-06-23T07:44:26.283Z,22.85
2017-06-23T07:45:26.318Z,22.84
2017-06-23T07:46:26.156Z,22.91
2017-06-23T07:47:26.088Z,22.83
2017-06-23T07:48:25.700Z,22.78
2017-06-23T07:49:25.969Z,22.81
2017-06-23T07:50:25.569Z,22.84
2017-06-23T07:51:25.836Z,22.8
2017-06-23T07:52:25.778Z,22.81
2017-06-23T07:53:25.711Z,22.81
2017-06-23T07:54:25.321Z,22.83
2017-06-23T07:55:25.589Z,22.81
2017-06-23T07:56:25.524Z,22.88
2017-06-23T07:57:25.273Z,22.87
2017-06-23T07:58:25.400Z,22.83
2017-06-23T07:59:25.335Z,22.84
2017-06-23T08:00:25.273Z,22.84
2017-06-23T08:01:25.210Z,22.87
2017-06-23T08:02:25.149Z,22.76
2017-06-23T08:03:25.087Z,22.81
2017-06-23T08:04:25.024Z,22.81
2017-06-23T08:05:24.962Z,22.81
2017-06-23T08:06:24.903Z,22.83
2017-06-23T08:07:24.843Z,22.83
2017-06-23T08:08:24.451Z,22.81
2017-06-23T08:09:24.732Z,22.81
2017-06-23T08:10:24.650Z,22.84
2017-06-23T08:11:24.587Z,22.83
2017-06-23T08:12:23.878Z,22.83
2017-06-23T08:13:24.462Z,22.87
2017-06-23T08:14:24.434Z,22.83
2017-06-23T08:15:24.334Z,22.81
2017-06-23T08:16:24.277Z,22.76
2017-06-23T08:17:24.213Z,22.75
2017-06-23T08:18:24.152Z,22.81
2017-06-23T08:19:24.086Z,22.78
2017-06-23T08:20:23.756Z,22.83
2017-06-23T08:21:23.959Z,22.8
2017-06-23T08:22:23.575Z,22.76
2017-06-23T08:23:23.181Z,22.8
2017-06-23T08:24:23.448Z,22.68
2017-06-23T08:25:23.713Z,22.8
2017-06-23T08:26:23.658Z,22.72
2017-06-23T08:27:23.585Z,22.7
2017-06-23T08:28:22.867Z,22.76
2017-06-23T08:29:23.137Z,22.83
2017-06-23T08:30:23.069Z,22.75
2017-06-23T08:31:22.779Z,22.7
2017-06-23T08:32:23.281Z,22.76
2017-06-23T08:33:22.881Z,22.84
2017-06-23T08:34:23.154Z,22.75
2017-06-23T08:35:23.086Z,22.76
2017-06-23T08:36:23.424Z,22.72
2017-06-23T08:37:22.963Z,22.85
2017-06-23T08:38:22.895Z,22.85
2017-06-23T08:39:22.837Z,22.81
2017-06-23T08:40:22.776Z,22.84
2017-06-23T08:41:22.738Z,22.73
2017-06-23T08:42:22.650Z,22.76
2017-06-23T08:43:22.586Z,22.78
2017-06-23T08:44:22.528Z,22.78
2017-06-23T08:45:22.467Z,22.76
2017-06-23T08:46:22.073Z,22.78
2017-06-23T08:47:22.359Z,22.78
2017-06-23T08:48:22.275Z,22.73
2017-06-23T08:49:22.211Z,22.76
2017-06-23T08:50:22.151Z,22.78
2017-06-23T08:51:22.096Z,22.78
2017-06-23T08:52:22.028Z,22.76
2017-06-23T08:53:21.960Z,22.75
2017-06-23T08:54:21.895Z,22.78
2017-06-23T08:55:21.831Z,22.78
2017-06-23T08:56:21.772Z,22.75
2017-06-23T08:57:21.710Z,22.75
2017-06-23T08:58:21.643Z,22.85
2017-06-23T08:59:21.583Z,22.78
2017-06-23T09:00:21.524Z,22.81
2017-06-23T09:01:20.804Z,22.81
2017-06-23T09:02:21.394Z,22.81
2017-06-23T09:03:21.347Z,22.84
2017-06-23T09:04:21.270Z,22.8
2017-06-23T09:05:21.207Z,22.9
2017-06-23T09:06:21.146Z,22.8
2017-06-23T09:07:35.620Z,22.93
2017-06-23T09:08:20.691Z,22.9
2017-06-23T09:09:21.158Z,22.91
2017-06-23T09:10:20.892Z,22.88
2017-06-23T09:11:20.833Z,22.88
2017-06-23T09:12:21.021Z,22.91
2017-06-23T09:13:20.718Z,22.81
2017-06-23T09:14:20.654Z,22.84
2017-06-23T09:15:20.257Z,22.99
2017-06-23T09:16:20.520Z,22.91
2017-06-23T09:17:20.132Z,22.93
2017-06-23T09:18:20.400Z,22.91
2017-06-23T09:19:20.334Z,22.91
2017-06-23T09:20:20.273Z,22.88
2017-06-23T09:21:20.212Z,22.96
2017-06-23T09:22:20.149Z,22.99
2017-06-23T09:23:20.090Z,22.91
2017-06-23T09:24:20.023Z,22.91
2017-06-23T09:25:19.300Z,22.91
2017-06-23T09:26:19.901Z,22.94
2017-06-23T09:27:19.835Z,22.99
2017-06-23T09:28:19.446Z,22.88
2017-06-23T09:29:19.719Z,22.88
2017-06-23T09:30:19.660Z,22.9
2017-06-23T09:31:19.585Z,22.93
2017-06-23T09:32:19.522Z,22.85
2017-06-23T09:33:19.465Z,22.83
2017-06-23T09:34:19.394Z,22.93
2017-06-23T09:35:19.332Z,22.93
2017-06-23T09:36:19.279Z,22.91
2017-06-23T09:37:18.884Z,22.88
2017-06-23T09:38:19.395Z,22.98
2017-06-23T09:39:19.085Z,22.93
2017-06-23T09:40:18.706Z,22.99
2017-06-23T09:41:18.964Z,22.87
2017-06-23T09:42:18.897Z,22.98
2017-06-23T09:43:19.185Z,23
2017-06-23T09:44:18.772Z,22.99
2017-06-23T09:45:18.711Z,23.02
2017-06-23T09:46:18.650Z,22.93
2017-06-23T09:47:18.258Z,22.99
2017-06-23T09:48:18.774Z,22.99
2017-06-23T09:49:18.458Z,22.9
2017-06-23T09:50:18.501Z,22.9
2017-06-23T09:51:18.336Z,22.9
2017-06-23T09:52:18.277Z,22.98
2017-06-23T09:53:18.207Z,22.98
2017-06-23T09:54:18.150Z,22.99
2017-06-23T09:55:18.249Z,22.93
2017-06-23T09:56:18.022Z,22.94
2017-06-23T09:57:17.988Z,22.99
2017-06-23T09:58:17.901Z,22.96
2017-06-23T09:59:17.849Z,22.98
2017-06-23T10:00:17.783Z,22.93
2017-06-23T10:01:17.714Z,22.98
2017-06-23T10:02:17.653Z,23.05
2017-06-23T10:03:17.260Z,22.96
2017-06-23T10:04:17.195Z,23
2017-06-23T10:05:17.135Z,23.02
2017-06-23T10:06:17.398Z,22.99
2017-06-23T10:07:17.336Z,23.03
2017-06-23T10:08:17.287Z,22.99
2017-06-23T10:09:16.887Z,23.02
2017-06-23T10:10:17.159Z,22.99
2017-06-23T10:11:17.101Z,23.03
2017-06-23T10:12:17.024Z,23.02
2017-06-23T10:13:16.965Z,23.05
2017-06-23T10:14:16.604Z,23.05
2017-06-23T10:15:16.670Z,23.05
2017-06-23T10:16:16.783Z,23
2017-06-23T10:17:16.735Z,22.96
2017-06-23T10:18:16.655Z,23
2017-06-23T10:19:15.952Z,22.99
2017-06-23T10:20:16.628Z,23
2017-06-23T10:21:16.472Z,22.96
2017-06-23T10:22:16.410Z,23.02
2017-06-23T10:23:16.020Z,22.99
2017-06-23T10:24:15.953Z,23.03
2017-06-23T10:25:16.220Z,22.94
2017-06-23T10:26:16.154Z,23
2017-06-23T10:27:16.108Z,22.94
2017-06-23T10:28:16.039Z,23.02
2017-06-23T10:29:15.973Z,22.96
2017-06-23T10:30:15.606Z,23.03
2017-06-23T10:31:15.865Z,22.98
2017-06-23T10:32:15.474Z,22.99
2017-06-23T10:33:15.734Z,23
2017-06-23T10:34:15.673Z,23
2017-06-23T10:35:15.273Z,23.02
2017-06-23T10:36:15.540Z,22.94
2017-06-23T10:37:15.467Z,23.06
2017-06-23T10:38:15.401Z,22.99
2017-06-23T10:39:15.352Z,23.05
2017-06-23T10:40:15.286Z,22.99
2017-06-23T10:41:14.899Z,23.05
2017-06-23T10:42:15.154Z,23.08
2017-06-23T10:43:15.100Z,22.99
2017-06-23T10:44:15.050Z,23.06
2017-06-23T10:45:14.642Z,23.03
2017-06-23T10:46:14.595Z,23.03
2017-06-23T10:47:14.852Z,23.08
2017-06-23T10:48:14.791Z,23.02
2017-06-23T10:49:14.462Z,22.99
2017-06-23T10:50:14.342Z,22.94
2017-06-23T10:51:14.604Z,23
2017-06-23T10:52:14.542Z,23.02
2017-06-23T10:53:14.163Z,23.03
2017-06-23T10:54:14.407Z,23.03
2017-06-23T10:55:14.024Z,23.05
2017-06-23T10:56:13.954Z,22.99
2017-06-23T10:57:14.219Z,23.03
2017-06-23T10:58:14.155Z,23.03
2017-06-23T10:59:14.097Z,23.05
2017-06-23T11:00:14.039Z,23.06
2017-06-23T11:01:13.976Z,23.06
2017-06-23T11:02:13.915Z,22.98
2017-06-23T11:03:13.850Z,23.03
2017-06-23T11:04:13.782Z,23.02
2017-06-23T11:05:13.725Z,23.03
2017-06-23T11:06:13.667Z,23.06
2017-06-23T11:07:13.602Z,22.99
2017-06-23T11:08:13.541Z,23.02
2017-06-23T11:09:13.474Z,23.03
2017-06-23T11:10:13.089Z,23.03
2017-06-23T11:11:13.350Z,23.02
2017-06-23T11:12:13.284Z,23.03
2017-06-23T11:13:13.227Z,23.05
2017-06-23T11:14:12.831Z,23.08
2017-06-23T11:15:13.111Z,23.06
2017-06-23T11:16:13.039Z,23.05
2017-06-23T11:17:12.974Z,23.12
2017-06-23T11:18:12.583Z,23.03
2017-06-23T11:19:12.853Z,23
2017-06-23T11:20:12.787Z,23.05
2017-06-23T11:21:12.724Z,23.05
2017-06-23T11:22:12.660Z,23.05
2017-06-23T11:23:12.274Z,23.12
2017-06-23T11:24:12.542Z,23.03
2017-06-23T11:25:12.476Z,23.05
2017-06-23T11:26:12.085Z,23.05
2017-06-23T11:27:12.352Z,23.05
2017-06-23T11:28:12.290Z,23.05
2017-06-23T11:29:12.226Z,23.03
2017-06-23T11:30:12.162Z,23.1
2017-06-23T11:31:11.787Z,23.05
2017-06-23T11:32:12.037Z,23.02
2017-06-23T11:33:11.975Z,23.08
2017-06-23T11:34:11.924Z,23.03
2017-06-23T11:35:11.854Z,23.05
2017-06-23T11:36:11.796Z,23.06
2017-06-23T11:37:11.728Z,23.03
2017-06-23T11:38:11.667Z,23.02
2017-06-23T11:39:11.606Z,23.03
2017-06-23T11:40:11.216Z,23.08
2017-06-23T11:41:11.488Z,23.02
2017-06-23T11:42:11.415Z,23.05
2017-06-23T11:43:11.358Z,23.02
2017-06-23T11:44:10.637Z,23.08
2017-06-23T11:45:11.530Z,23.03
2017-06-23T11:46:11.166Z,23.05
2017-06-23T11:47:10.774Z,23.05
2017-06-23T11:48:11.041Z,23.03
2017-06-23T11:49:10.983Z,23.06
2017-06-23T11:50:11.083Z,23.1
2017-06-23T11:51:10.865Z,23.03
2017-06-23T11:52:10.803Z,23.08
2017-06-23T11:53:10.733Z,23.1
2017-06-23T11:54:10.669Z,23.05
2017-06-23T11:55:10.607Z,23.08
2017-06-23T11:56:10.546Z,23.08
2017-06-23T11:57:10.484Z,23.08
2017-06-23T11:58:10.432Z,23.08
2017-06-23T11:59:10.359Z,23.06
2017-06-23T12:00:10.307Z,23.05
2017-06-23T12:01:10.235Z,23.02
2017-06-23T12:02:10.170Z,23.08
2017-06-23T12:03:10.115Z,23.09
2017-06-23T12:04:09.394Z,23.12
2017-06-23T12:05:09.983Z,23.06
2017-06-23T12:06:09.930Z,23.05
2017-06-23T12:07:09.873Z,23.02
2017-06-23T12:08:09.814Z,23.09
2017-06-23T12:09:09.733Z,23.03
2017-06-23T12:10:09.672Z,23.05
2017-06-23T12:11:09.614Z,23.03
2017-06-23T12:12:09.552Z,23.05
2017-06-23T12:13:09.691Z,23.03
2017-06-23T12:14:09.426Z,23
2017-06-23T12:15:09.371Z,23.02
2017-06-23T12:16:08.652Z,23.03
2017-06-23T12:17:09.240Z,23.02
2017-06-23T12:18:09.201Z,23.02
2017-06-23T12:19:09.118Z,23.02
2017-06-23T12:20:08.412Z,23
2017-06-23T12:21:08.990Z,23.02
2017-06-23T12:22:08.954Z,22.99
2017-06-23T12:23:08.863Z,23
2017-06-23T12:24:08.807Z,22.99
2017-06-23T12:25:08.412Z,23.03
2017-06-23T12:26:08.430Z,22.93
2017-06-23T12:27:08.628Z,23
2017-06-23T12:28:08.553Z,23
2017-06-23T12:29:08.498Z,22.96
2017-06-23T12:30:08.105Z,22.99
2017-06-23T12:31:08.034Z,23.05
2017-06-23T12:32:08.306Z,23.05
2017-06-23T12:33:08.240Z,22.96
2017-06-23T12:34:07.850Z,23
2017-06-23T12:35:07.787Z,22.98
2017-06-23T12:36:08.052Z,23.02
2017-06-23T12:37:07.662Z,22.94
2017-06-23T12:38:07.948Z,22.99
2017-06-23T12:39:07.873Z,23
2017-06-23T12:40:07.814Z,23
2017-06-23T12:41:07.748Z,22.99
2017-06-23T12:42:07.677Z,22.99
2017-06-23T12:43:07.619Z,22.99
2017-06-23T12:44:07.551Z,22.98
2017-06-23T12:45:06.840Z,22.96
2017-06-23T12:46:07.103Z,22.96
2017-06-23T12:47:06.732Z,23
2017-06-23T12:48:07.304Z,22.99
2017-06-23T12:49:07.251Z,22.99
2017-06-23T12:50:07.182Z,23
2017-06-23T12:51:07.121Z,22.99
2017-06-23T12:52:06.726Z,23.05
2017-06-23T12:53:07.005Z,22.96
2017-06-23T12:54:06.931Z,22.98
2017-06-23T12:55:06.639Z,23
2017-06-23T12:56:06.817Z,23.03
2017-06-23T12:57:06.743Z,22.96
2017-06-23T12:58:06.679Z,23.05